Time;durP1;ratioP1;P1;durP2;ratioP2;P2;SDS_P1;SDS_P2;PMS_P1;PMS_P2;Temp;Humidity;BMP_temperature;BMP_pressure;BME280_temperature;BME280_humidity;BME280_pressure;Samples;Min_cycle;Max_cycle;Signal;HPM_P1;HPM_P2
2022/10/17 00:00:34;;;;;;;;;;;12.40;99.90;;;;;;5071553;28;19931;-65
2022/10/17 00:03:00;;;;;;;;;;;12.30;99.90;;;;;;5078857;28;19928;-65
2022/10/17 00:05:26;;;;;;;;;;;12.30;99.90;;;;;;5053775;28;19929;-65
2022/10/17 00:07:52;;;;;;;;;;;12.30;99.90;;;;;;5067999;28;19924;-65
2022/10/17 00:10:18;;;;;;;;;;;12.30;99.90;;;;;;5071362;28;20001;-66
2022/10/17 00:12:43;;;;;;;;;;;12.30;99.90;;;;;;5055522;28;20294;-65
2022/10/17 00:15:10;;;;;;;;;;;12.30;99.90;;;;;;5071138;28;20007;-66
2022/10/17 00:17:37;;;;;;;;;;;12.30;99.90;;;;;;5070099;28;19924;-66
2022/10/17 00:20:02;;;;;;;;;;;12.30;99.90;;;;;;5070116;28;20007;-65
2022/10/17 00:22:28;;;;;;;;;;;12.30;99.90;;;;;;5053604;28;20015;-65
2022/10/17 00:24:54;;;;;;;;;;;12.30;99.90;;;;;;5069408;28;19925;-66
2022/10/17 00:27:19;;;;;;;;;;;12.30;99.90;;;;;;5071046;28;19931;-65
2022/10/17 00:29:49;;;;;;;;;;;12.30;99.90;;;;;;5071041;28;19928;-65
2022/10/17 00:35:36;;;;;;;;;;;12.30;99.90;;;;;;5314073;22;19978;-68
2022/10/17 00:38:02;;;;;;;;;;;12.30;99.90;;;;;;5084823;28;19964;-66
2022/10/17 00:40:27;;;;;;;;;;;12.30;99.90;;;;;;5072465;28;19921;-66
2022/10/17 00:42:53;;;;;;;;;;;12.30;99.90;;;;;;5105249;28;19928;-66
2022/10/17 00:45:21;;;;;;;;;;;12.40;99.90;;;;;;5087359;28;19999;-65
2022/10/17 00:47:55;;;;;;;;;;;12.30;99.90;;;;;;5071514;28;20159;-66
2022/10/17 00:50:21;;;;;;;;;;;12.40;99.90;;;;;;5088607;28;20011;-67
2022/10/17 00:52:48;;;;;;;;;;;12.40;99.90;;;;;;5071288;28;20008;-66
2022/10/17 00:55:16;;;;;;;;;;;12.40;99.90;;;;;;5071206;28;20275;-66
2022/10/17 00:57:44;;;;;;;;;;;12.40;99.90;;;;;;5087819;28;19924;-67
2022/10/17 01:00:10;;;;;;;;;;;12.40;99.90;;;;;;5072584;28;19924;-66
2022/10/17 01:02:35;;;;;;;;;;;12.40;99.90;;;;;;5088267;28;19932;-67
2022/10/17 01:05:01;;;;;;;;;;;12.40;99.90;;;;;;5071550;28;19931;-66
2022/10/17 01:07:27;;;;;;;;;;;12.40;99.90;;;;;;5071867;28;20405;-66
2022/10/17 01:09:53;;;;;;;;;;;12.40;99.90;;;;;;5088178;28;20010;-67
2022/10/17 01:12:19;;;;;;;;;;;12.40;99.90;;;;;;5072236;28;20383;-66
2022/10/17 01:14:50;;;;;;;;;;;12.40;99.90;;;;;;5072102;28;19924;-67
2022/10/17 01:17:22;;;;;;;;;;;12.40;99.90;;;;;;5105165;28;19946;-66
2022/10/17 01:20:06;;;;;;;;;;;12.40;99.90;;;;;;5087769;28;19947;-66
2022/10/17 01:22:52;;;;;;;;;;;12.40;99.90;;;;;;5071934;28;19929;-66
2022/10/17 01:25:32;;;;;;;;;;;12.40;99.90;;;;;;5072048;28;20016;-65
2022/10/17 01:28:10;;;;;;;;;;;12.40;99.90;;;;;;5104951;28;19925;-65
2022/10/17 01:30:54;;;;;;;;;;;12.40;99.90;;;;;;5071745;28;19925;-66
2022/10/17 01:33:29;;;;;;;;;;;12.40;99.90;;;;;;5071986;28;20402;-66
2022/10/17 01:36:21;;;;;;;;;;;12.40;99.90;;;;;;5071080;28;20333;-66
2022/10/17 01:38:53;;;;;;;;;;;12.40;99.90;;;;;;5070353;28;19971;-66
2022/10/17 01:41:24;;;;;;;;;;;12.50;99.90;;;;;;5072252;28;19932;-66
2022/10/17 01:43:53;;;;;;;;;;;12.50;99.90;;;;;;5071791;28;19932;-66
2022/10/17 01:46:18;;;;;;;;;;;12.50;99.90;;;;;;5104992;28;19929;-66
2022/10/17 01:48:45;;;;;;;;;;;12.60;99.90;;;;;;5071153;28;19970;-66
2022/10/17 01:51:20;;;;;;;;;;;12.60;99.90;;;;;;5072352;28;19928;-66
2022/10/17 01:53:53;;;;;;;;;;;12.60;99.90;;;;;;5104632;28;19932;-65
2022/10/17 01:56:21;;;;;;;;;;;12.70;99.90;;;;;;5072612;28;19991;-67
2022/10/17 01:58:50;;;;;;;;;;;12.70;99.90;;;;;;5075539;28;19925;-66
2022/10/17 02:01:16;;;;;;;;;;;12.70;99.90;;;;;;5074862;28;20019;-67
2022/10/17 02:03:42;;;;;;;;;;;12.70;99.90;;;;;;5075641;28;19924;-66
2022/10/17 02:06:08;;;;;;;;;;;12.80;99.90;;;;;;5076153;28;20016;-66
2022/10/17 02:08:44;;;;;;;;;;;12.80;99.90;;;;;;5091138;28;20023;-66
2022/10/17 02:11:13;;;;;;;;;;;12.80;99.90;;;;;;5075655;28;20333;-66
2022/10/17 02:13:52;;;;;;;;;;;12.80;99.90;;;;;;5075446;28;20306;-66
2022/10/17 02:16:17;;;;;;;;;;;12.80;99.90;;;;;;5075678;28;19931;-66
2022/10/17 02:18:55;;;;;;;;;;;12.80;99.90;;;;;;5091033;28;19924;-67
2022/10/17 02:21:32;;;;;;;;;;;12.80;99.90;;;;;;5074564;28;19924;-66
2022/10/17 02:24:06;;;;;;;;;;;12.80;99.90;;;;;;5074513;28;19932;-67
2022/10/17 02:26:35;;;;;;;;;;;12.80;99.90;;;;;;5075479;28;20011;-65
2022/10/17 02:29:27;;;;;;;;;;;12.80;99.90;;;;;;5075347;28;20031;-66
2022/10/17 02:32:02;;;;;;;;;;;12.80;99.90;;;;;;5073803;28;19924;-65
2022/10/17 02:34:35;;;;;;;;;;;12.80;99.90;;;;;;5090894;28;20371;-66
2022/10/17 02:37:02;;;;;;;;;;;12.70;99.90;;;;;;5074943;28;19928;-66
2022/10/17 02:39:29;;;;;;;;;;;12.70;99.90;;;;;;5075184;28;20264;-66
2022/10/17 02:41:56;;;;;;;;;;;12.30;99.90;;;;;;5107744;28;19966;-66
2022/10/17 02:44:22;;;;;;;;;;;12.70;99.90;;;;;;5073816;28;19935;-66
2022/10/17 02:46:51;;;;;;;;;;;12.70;99.90;;;;;;5074710;28;19925;-67
2022/10/17 02:49:20;;;;;;;;;;;12.70;99.90;;;;;;5073685;28;19931;-66
2022/10/17 02:51:55;;;;;;;;;;;12.70;99.90;;;;;;5074546;28;20062;-66
2022/10/17 02:54:41;;;;;;;;;;;12.70;99.90;;;;;;5074952;28;19925;-67
2022/10/17 02:57:10;;;;;;;;;;;12.70;99.90;;;;;;5074091;28;19932;-66
2022/10/17 02:59:36;;;;;;;;;;;12.70;99.90;;;;;;5107715;28;19924;-66
2022/10/17 03:02:03;;;;;;;;;;;12.70;99.90;;;;;;5074376;28;19925;-65
2022/10/17 03:04:28;;;;;;;;;;;12.70;99.90;;;;;;5074317;28;19931;-66
2022/10/17 03:06:54;;;;;;;;;;;12.70;99.90;;;;;;5073642;28;19925;-66
2022/10/17 03:09:20;;;;;;;;;;;12.70;99.90;;;;;;5073762;28;19954;-66
2022/10/17 03:11:45;;;;;;;;;;;12.70;99.90;;;;;;5074351;28;19924;-66
2022/10/17 03:14:11;;;;;;;;;;;12.60;99.90;;;;;;5074469;28;19931;-66
2022/10/17 03:16:37;;;;;;;;;;;12.60;99.90;;;;;;5074740;28;20283;-67
2022/10/17 03:19:02;;;;;;;;;;;12.60;99.90;;;;;;5107335;28;19925;-66
2022/10/17 03:21:28;;;;;;;;;;;12.60;99.90;;;;;;5073410;28;19974;-66
2022/10/17 03:23:53;;;;;;;;;;;12.60;99.90;;;;;;5074195;28;19932;-66
2022/10/17 03:26:19;;;;;;;;;;;12.70;99.90;;;;;;5074324;28;19968;-65
2022/10/17 03:28:44;;;;;;;;;;;12.60;99.90;;;;;;5089624;28;19924;-66
2022/10/17 03:31:13;;;;;;;;;;;12.60;99.90;;;;;;5107305;28;20019;-66
2022/10/17 03:33:38;;;;;;;;;;;12.60;99.90;;;;;;5073113;28;19932;-66
2022/10/17 03:36:07;;;;;;;;;;;12.70;99.90;;;;;;5073685;28;19925;-67
2022/10/17 03:38:34;;;;;;;;;;;12.70;99.90;;;;;;5106739;28;19975;-66
2022/10/17 03:41:00;;;;;;;;;;;12.70;99.90;;;;;;5073855;28;19974;-66
2022/10/17 03:43:25;;;;;;;;;;;12.70;99.90;;;;;;5072889;28;19924;-66
2022/10/17 03:45:51;;;;;;;;;;;12.70;99.90;;;;;;5106404;28;19931;-67
2022/10/17 03:48:17;;;;;;;;;;;12.80;99.90;;;;;;5073865;28;19920;-66
2022/10/17 03:50:42;;;;;;;;;;;12.80;99.90;;;;;;5072366;28;19931;-66
2022/10/17 03:53:08;;;;;;;;;;;12.70;99.90;;;;;;5073506;28;19924;-66
2022/10/17 03:55:33;;;;;;;;;;;12.80;99.90;;;;;;5106660;28;19924;-66
2022/10/17 03:57:59;;;;;;;;;;;12.80;99.90;;;;;;5072353;28;19931;-67
2022/10/17 04:00:24;;;;;;;;;;;12.80;99.90;;;;;;5106671;28;20038;-66
2022/10/17 04:02:50;;;;;;;;;;;12.80;99.90;;;;;;5073280;28;20357;-66
2022/10/17 04:05:15;;;;;;;;;;;12.80;99.90;;;;;;5073685;28;19983;-66
2022/10/17 04:07:41;;;;;;;;;;;12.80;99.90;;;;;;5072963;28;20147;-66
2022/10/17 04:10:07;;;;;;;;;;;12.80;99.90;;;;;;5072916;28;19925;-67
2022/10/17 04:12:32;;;;;;;;;;;12.70;99.90;;;;;;5073526;28;19925;-65
2022/10/17 04:14:58;;;;;;;;;;;12.70;99.90;;;;;;5072889;28;19924;-66
2022/10/17 04:17:23;;;;;;;;;;;12.70;99.90;;;;;;5071870;28;19928;-66
2022/10/17 04:19:49;;;;;;;;;;;12.60;99.90;;;;;;5073140;28;19924;-66
2022/10/17 04:22:15;;;;;;;;;;;12.60;99.90;;;;;;5072892;28;20323;-66
2022/10/17 04:24:40;;;;;;;;;;;12.60;99.90;;;;;;5073016;28;19928;-66
2022/10/17 04:27:06;;;;;;;;;;;12.60;99.90;;;;;;5073123;28;19924;-65
2022/10/17 04:29:31;;;;;;;;;;;12.60;99.90;;;;;;5105582;28;19928;-67
2022/10/17 04:31:57;;;;;;;;;;;12.60;99.90;;;;;;5072708;28;19928;-66
2022/10/17 04:34:23;;;;;;;;;;;12.60;99.90;;;;;;5105935;28;19972;-67
2022/10/17 04:36:50;;;;;;;;;;;12.60;99.90;;;;;;5105429;28;19994;-66
2022/10/17 04:39:16;;;;;;;;;;;12.60;99.90;;;;;;5072637;28;19924;-67
2022/10/17 04:41:41;;;;;;;;;;;12.60;99.90;;;;;;5072797;28;19924;-66
2022/10/17 04:44:08;;;;;;;;;;;12.60;99.90;;;;;;5072569;28;20232;-67
2022/10/17 04:46:34;;;;;;;;;;;12.60;99.90;;;;;;5088489;28;20019;-66
2022/10/17 04:49:00;;;;;;;;;;;12.60;99.90;;;;;;5071022;28;20371;-66
2022/10/17 04:51:25;;;;;;;;;;;12.60;99.90;;;;;;5072676;28;19924;-67
2022/10/17 04:53:51;;;;;;;;;;;12.60;99.90;;;;;;5072786;28;20019;-67
2022/10/17 04:56:21;;;;;;;;;;;12.70;99.90;;;;;;5071331;28;20341;-66
2022/10/17 04:58:47;;;;;;;;;;;12.70;99.90;;;;;;5072785;28;19925;-66
2022/10/17 05:01:17;;;;;;;;;;;12.70;99.90;;;;;;5072301;28;19924;-66
2022/10/17 05:03:43;;;;;;;;;;;12.70;99.90;;;;;;5072652;28;19924;-66
2022/10/17 05:06:13;;;;;;;;;;;12.70;99.90;;;;;;5072258;28;19935;-67
2022/10/17 05:08:39;;;;;;;;;;;12.80;99.90;;;;;;5072311;28;20464;-67
2022/10/17 05:11:05;;;;;;;;;;;12.80;99.90;;;;;;5072003;28;19968;-66
2022/10/17 05:13:31;;;;;;;;;;;12.80;99.90;;;;;;5072441;28;19928;-66
2022/10/17 05:15:57;;;;;;;;;;;12.80;99.90;;;;;;5072621;28;20313;-66
2022/10/17 05:18:23;;;;;;;;;;;12.80;99.90;;;;;;5071232;28;19948;-66
2022/10/17 05:20:49;;;;;;;;;;;12.90;99.90;;;;;;5072354;28;19921;-67
2022/10/17 05:23:14;;;;;;;;;;;12.90;99.90;;;;;;5071720;28;19924;-67
2022/10/17 05:25:40;;;;;;;;;;;12.90;99.90;;;;;;5072462;28;19939;-67
2022/10/17 05:28:05;;;;;;;;;;;12.90;99.90;;;;;;5071762;28;20342;-67
2022/10/17 05:30:31;;;;;;;;;;;12.90;99.90;;;;;;5072038;28;19928;-66
2022/10/17 05:32:56;;;;;;;;;;;12.90;99.90;;;;;;5071124;28;20385;-66
2022/10/17 05:35:22;;;;;;;;;;;13.00;99.90;;;;;;5071727;28;19930;-66
2022/10/17 05:37:48;;;;;;;;;;;13.00;99.90;;;;;;5087649;28;19925;-66
2022/10/17 05:40:13;;;;;;;;;;;13.00;99.90;;;;;;5071874;28;19993;-66
2022/10/17 05:42:39;;;;;;;;;;;13.00;99.90;;;;;;5104981;28;19931;-67
2022/10/17 05:45:05;;;;;;;;;;;13.00;99.90;;;;;;5071985;28;20272;-66
2022/10/17 05:47:30;;;;;;;;;;;13.00;99.90;;;;;;5072015;28;19928;-67
2022/10/17 05:49:56;;;;;;;;;;;13.00;99.90;;;;;;5053748;28;19920;-66
2022/10/17 05:52:21;;;;;;;;;;;13.00;99.90;;;;;;5070183;28;19925;-66
2022/10/17 05:54:47;;;;;;;;;;;13.00;99.90;;;;;;5071801;28;19925;-66
2022/10/17 05:57:12;;;;;;;;;;;13.10;99.90;;;;;;5071661;28;19931;-66
2022/10/17 05:59:38;;;;;;;;;;;13.10;99.90;;;;;;5071813;28;19924;-66
2022/10/17 06:02:04;;;;;;;;;;;13.10;99.90;;;;;;5071752;28;19924;-66
2022/10/17 06:04:29;;;;;;;;;;;13.10;99.90;;;;;;5104540;28;19924;-66
2022/10/17 06:06:55;;;;;;;;;;;13.10;99.90;;;;;;5071776;28;20024;-66
2022/10/17 06:09:22;;;;;;;;;;;13.20;99.90;;;;;;5071252;28;20316;-65
2022/10/17 06:11:47;;;;;;;;;;;13.20;99.90;;;;;;5071638;28;19925;-67
2022/10/17 06:14:13;;;;;;;;;;;13.20;99.90;;;;;;5071608;28;19972;-66
2022/10/17 06:16:38;;;;;;;;;;;13.20;99.90;;;;;;5104643;28;20287;-66
2022/10/17 06:19:04;;;;;;;;;;;13.30;99.90;;;;;;5071433;28;19925;-67
2022/10/17 06:21:33;;;;;;;;;;;13.30;99.90;;;;;;5070469;28;19936;-67
2022/10/17 06:23:58;;;;;;;;;;;13.40;99.90;;;;;;5070597;28;19920;-66
2022/10/17 06:26:24;;;;;;;;;;;13.50;99.90;;;;;;5104221;28;19925;-67
2022/10/17 06:28:49;;;;;;;;;;;13.50;99.90;;;;;;5071427;28;19928;-66
2022/10/17 06:31:15;;;;;;;;;;;13.60;99.90;;;;;;5069738;28;20058;-66
2022/10/17 06:33:41;;;;;;;;;;;13.60;99.90;;;;;;5071491;28;19925;-66
2022/10/17 06:36:10;;;;;;;;;;;13.70;99.90;;;;;;5103960;28;20397;-67
2022/10/17 06:38:35;;;;;;;;;;;13.70;99.90;;;;;;5071434;28;19931;-66
2022/10/17 06:41:02;;;;;;;;;;;13.80;99.90;;;;;;5071530;28;19925;-66
2022/10/17 06:43:28;;;;;;;;;;;13.80;99.90;;;;;;5070723;28;19983;-66
2022/10/17 06:45:53;;;;;;;;;;;13.90;99.90;;;;;;5075037;28;19968;-66
2022/10/17 06:48:19;;;;;;;;;;;13.90;99.90;;;;;;5074621;28;19978;-66
2022/10/17 06:50:44;;;;;;;;;;;14.00;99.90;;;;;;5074737;28;20015;-66
2022/10/17 06:53:10;;;;;;;;;;;14.00;99.90;;;;;;5074517;28;19929;-66
2022/10/17 06:55:35;;;;;;;;;;;14.00;99.90;;;;;;5073364;28;19976;-66
2022/10/17 06:58:01;;;;;;;;;;;14.10;99.90;;;;;;5074099;28;20294;-65
2022/10/17 07:00:27;;;;;;;;;;;14.10;99.90;;;;;;5074017;28;19924;-67
2022/10/17 07:02:52;;;;;;;;;;;14.10;99.90;;;;;;5073901;28;19939;-66
2022/10/17 07:05:18;;;;;;;;;;;14.10;99.90;;;;;;5073417;28;20071;-66
2022/10/17 07:07:44;;;;;;;;;;;14.20;99.90;;;;;;5090003;28;19932;-67
2022/10/17 07:10:09;;;;;;;;;;;14.20;99.90;;;;;;5074643;28;19925;-66
2022/10/17 07:12:35;;;;;;;;;;;14.20;99.90;;;;;;5074449;28;19969;-65
2022/10/17 07:15:03;;;;;;;;;;;14.20;99.90;;;;;;5074462;28;19928;-66
2022/10/17 07:17:28;;;;;;;;;;;14.30;99.90;;;;;;5074033;28;19924;-66
2022/10/17 07:19:54;;;;;;;;;;;14.30;99.90;;;;;;5074352;28;20062;-65
2022/10/17 07:22:20;;;;;;;;;;;14.30;99.90;;;;;;5074364;28;19935;-66
2022/10/17 07:24:45;;;;;;;;;;;14.40;99.90;;;;;;5106166;28;19924;-67
2022/10/17 07:27:11;;;;;;;;;;;14.60;99.90;;;;;;5099990;28;20014;-67
2022/10/17 07:29:37;;;;;;;;;;;14.70;99.90;;;;;;5071302;28;20093;-66
2022/10/17 07:32:05;;;;;;;;;;;14.90;99.90;;;;;;5072415;28;20008;-66
2022/10/17 07:34:31;;;;;;;;;;;14.80;99.90;;;;;;5073605;28;20429;-68
2022/10/17 07:36:57;;;;;;;;;;;14.90;99.90;;;;;;5072709;28;19924;-66
2022/10/17 07:39:23;;;;;;;;;;;14.90;99.90;;;;;;5088023;28;19924;-67
2022/10/17 07:41:49;;;;;;;;;;;15.00;99.90;;;;;;5073708;28;19924;-66
2022/10/17 07:44:15;;;;;;;;;;;15.10;99.90;;;;;;5105937;28;19925;-66
2022/10/17 07:46:40;;;;;;;;;;;15.20;99.90;;;;;;5072882;28;19950;-67
2022/10/17 07:49:06;;;;;;;;;;;15.30;99.90;;;;;;5073319;28;20000;-67
2022/10/17 07:51:32;;;;;;;;;;;15.30;99.90;;;;;;5070364;28;19959;-67
2022/10/17 07:53:57;;;;;;;;;;;15.30;99.90;;;;;;5087790;28;19927;-69
2022/10/17 07:56:23;;;;;;;;;;;15.40;99.90;;;;;;5070679;28;19925;-66
2022/10/17 07:58:50;;;;;;;;;;;15.40;99.90;;;;;;5072508;28;19932;-65
2022/10/17 08:01:16;;;;;;;;;;;15.40;99.90;;;;;;5072274;28;19932;-66
2022/10/17 08:03:45;;;;;;;;;;;15.40;99.90;;;;;;5070303;28;19924;-66
2022/10/17 08:06:11;;;;;;;;;;;15.50;99.90;;;;;;5072475;28;20399;-66
2022/10/17 08:08:37;;;;;;;;;;;15.80;99.90;;;;;;5072769;28;19924;-66
2022/10/17 08:11:03;;;;;;;;;;;;;;;;;;5073072;28;19931;-66
2022/10/17 08:13:28;;;;;;;;;;;16.40;99.90;;;;;;5071964;28;19931;-67
2022/10/17 08:15:57;;;;;;;;;;;18.10;99.90;;;;;;5071831;28;20015;-66
2022/10/17 08:18:23;;;;;;;;;;;18.20;99.90;;;;;;5072858;28;19944;-67
2022/10/17 08:20:48;;;;;;;;;;;18.00;99.90;;;;;;5072941;28;19931;-65
2022/10/17 08:23:14;;;;;;;;;;;17.70;99.90;;;;;;5072500;28;19932;-66
2022/10/17 08:25:39;;;;;;;;;;;17.40;99.90;;;;;;5072491;28;19928;-66
2022/10/17 08:28:05;;;;;;;;;;;17.40;99.90;;;;;;5072790;28;20350;-67
2022/10/17 08:30:31;;;;;;;;;;;17.20;99.90;;;;;;5071964;28;19935;-67
2022/10/17 08:32:56;;;;;;;;;;;17.10;99.90;;;;;;5105462;28;19977;-66
2022/10/17 08:35:22;;;;;;;;;;;17.00;99.90;;;;;;5072263;28;19924;-67
2022/10/17 08:37:48;;;;;;;;;;;17.00;99.90;;;;;;5072353;28;19979;-68
2022/10/17 08:40:22;;;;;;;;;;;16.80;99.90;;;;;;5088233;28;19960;-68
2022/10/17 08:43:00;;;;;;;;;;;16.80;99.90;;;;;;5087684;28;19931;-67
2022/10/17 08:45:40;;;;;;;;;;;16.80;99.90;;;;;;5072006;28;20023;-68
2022/10/17 08:48:12;;;;;;;;;;;16.80;99.90;;;;;;5105469;28;19930;-67
2022/10/17 08:50:55;;;;;;;;;;;16.80;99.90;;;;;;5072029;28;19925;-68
2022/10/17 08:53:33;;;;;;;;;;;16.80;99.90;;;;;;5071018;28;20019;-67
2022/10/17 08:56:01;;;;;;;;;;;16.80;99.90;;;;;;5070769;28;19925;-68
2022/10/17 08:58:28;;;;;;;;;;;16.80;99.90;;;;;;5071291;28;19924;-67
2022/10/17 09:01:03;;;;;;;;;;;16.90;99.90;;;;;;5104239;28;19925;-67
2022/10/17 09:03:48;;;;;;;;;;;16.90;99.90;;;;;;5071653;28;19928;-67
2022/10/17 09:06:30;;;;;;;;;;;16.90;99.90;;;;;;5070836;28;19924;-68
2022/10/17 09:08:56;;;;;;;;;;;17.00;99.90;;;;;;5071572;28;19939;-68
2022/10/17 09:11:42;;;;;;;;;;;17.00;99.90;;;;;;5070422;28;19924;-67
2022/10/17 09:14:17;;;;;;;;;;;17.00;99.90;;;;;;5071568;28;19924;-67
2022/10/17 09:16:46;;;;;;;;;;;17.00;99.90;;;;;;5070866;28;19931;-67
2022/10/17 09:19:17;;;;;;;;;;;16.90;99.90;;;;;;5071527;28;19925;-68
2022/10/17 09:22:18;;;;;;;;;;;16.90;99.90;;;;;;5071041;28;19931;-67
2022/10/17 09:25:10;;;;;;;;;;;16.90;99.90;;;;;;5051682;28;19959;-67
2022/10/17 09:27:39;;;;;;;;;;;16.90;99.90;;;;;;5066239;28;19932;-67
2022/10/17 09:30:23;;;;;;;;;;;17.00;99.90;;;;;;5070618;28;20307;-67
2022/10/17 09:32:49;;;;;;;;;;;16.60;99.90;;;;;;5070406;28;19959;-69
2022/10/17 09:35:15;;;;;;;;;;;17.00;99.90;;;;;;5104304;28;19991;-67
2022/10/17 09:37:41;;;;;;;;;;;17.00;99.90;;;;;;5071618;28;19936;-68
2022/10/17 09:40:11;;;;;;;;;;;17.00;99.90;;;;;;5071838;28;19924;-69
2022/10/17 09:42:37;;;;;;;;;;;17.00;99.90;;;;;;5069954;28;19924;-67
2022/10/17 09:45:09;;;;;;;;;;;17.00;99.90;;;;;;5071976;28;19951;-67
2022/10/17 09:47:53;;;;;;;;;;;17.00;99.90;;;;;;5104602;28;19951;-68
2022/10/17 09:50:25;;;;;;;;;;;17.00;99.90;;;;;;5070499;28;19974;-67
2022/10/17 09:52:52;;;;;;;;;;;17.00;99.90;;;;;;5071522;28;19929;-67
2022/10/17 09:55:40;;;;;;;;;;;17.10;99.90;;;;;;5071893;28;19928;-67
2022/10/17 09:58:07;;;;;;;;;;;17.10;99.90;;;;;;5070648;28;19924;-66
2022/10/17 10:00:36;;;;;;;;;;;17.10;99.90;;;;;;5071868;28;19970;-67
2022/10/17 10:03:09;;;;;;;;;;;17.00;99.90;;;;;;5104208;28;20023;-66
2022/10/17 10:05:35;;;;;;;;;;;17.00;99.90;;;;;;5070997;28;19924;-66
2022/10/17 10:08:02;;;;;;;;;;;17.00;99.90;;;;;;5070137;28;20016;-70
2022/10/17 10:10:29;;;;;;;;;;;17.00;99.90;;;;;;5071027;28;20397;-67
2022/10/17 10:13:02;;;;;;;;;;;16.90;99.90;;;;;;5071197;28;19925;-66
2022/10/17 10:15:33;;;;;;;;;;;16.90;99.90;;;;;;5070667;28;19931;-67
2022/10/17 10:17:59;;;;;;;;;;;16.80;99.90;;;;;;5072278;28;20166;-68
2022/10/17 10:20:33;;;;;;;;;;;16.80;99.90;;;;;;5075143;28;20407;-67
2022/10/17 10:23:04;;;;;;;;;;;16.80;99.90;;;;;;5074785;28;19924;-67
2022/10/17 10:25:29;;;;;;;;;;;16.70;99.90;;;;;;5074337;28;19947;-67
2022/10/17 10:27:55;;;;;;;;;;;16.70;99.90;;;;;;5107737;28;20368;-66
2022/10/17 10:30:26;;;;;;;;;;;16.60;99.90;;;;;;5090814;28;19925;-67
2022/10/17 10:32:51;;;;;;;;;;;16.60;99.90;;;;;;5073772;28;19928;-67
2022/10/17 10:35:19;;;;;;;;;;;16.60;99.90;;;;;;5074010;28;20248;-67
2022/10/17 10:37:49;;;;;;;;;;;16.70;99.90;;;;;;5075004;28;19924;-68
2022/10/17 10:40:32;;;;;;;;;;;16.50;99.90;;;;;;5073946;28;20008;-69
2022/10/17 10:42:58;;;;;;;;;;;16.50;99.90;;;;;;5090656;28;19924;-68
2022/10/17 10:45:42;;;;;;;;;;;16.50;99.90;;;;;;5091009;28;19924;-67
2022/10/17 10:48:24;;;;;;;;;;;16.50;99.90;;;;;;5073618;28;19931;-68
2022/10/17 10:50:58;;;;;;;;;;;16.50;99.90;;;;;;5074687;28;19932;-67
2022/10/17 10:53:24;;;;;;;;;;;16.50;99.90;;;;;;5075008;28;19925;-68
2022/10/17 10:56:11;;;;;;;;;;;16.50;99.90;;;;;;5107527;28;19929;-69
2022/10/17 10:58:55;;;;;;;;;;;16.50;99.90;;;;;;5073881;28;20398;-69
2022/10/17 11:01:28;;;;;;;;;;;16.50;99.90;;;;;;5073776;28;19924;-68
2022/10/17 11:03:57;;;;;;;;;;;16.40;99.90;;;;;;5072931;28;20379;-69
2022/10/17 11:06:26;;;;;;;;;;;16.40;99.90;;;;;;5107715;28;19971;-69
2022/10/17 11:08:59;;;;;;;;;;;16.50;99.90;;;;;;5074330;28;19924;-69
2022/10/17 11:11:39;;;;;;;;;;;16.50;99.90;;;;;;5074757;28;19925;-69
2022/10/17 11:14:14;;;;;;;;;;;16.50;99.90;;;;;;5107327;28;20107;-69
2022/10/17 11:17:01;;;;;;;;;;;16.50;99.90;;;;;;5090239;28;19925;-69
2022/10/17 11:19:30;;;;;;;;;;;16.50;99.90;;;;;;5090487;28;19928;-70
2022/10/17 11:22:15;;;;;;;;;;;16.50;99.90;;;;;;5073117;28;19924;-69
2022/10/17 11:24:46;;;;;;;;;;;16.50;99.90;;;;;;5106971;28;19933;-67
2022/10/17 11:27:12;;;;;;;;;;;16.60;99.90;;;;;;5072924;28;19924;-71
2022/10/17 11:29:39;;;;;;;;;;;16.60;99.90;;;;;;5088728;28;20378;-69
2022/10/17 11:32:25;;;;;;;;;;;16.60;99.90;;;;;;5072339;28;19924;-70
2022/10/17 11:34:53;;;;;;;;;;;16.60;99.90;;;;;;5072260;28;19944;-72
2022/10/17 11:37:25;;;;;;;;;;;16.60;99.90;;;;;;5106101;28;19932;-69
2022/10/17 11:39:54;;;;;;;;;;;16.60;99.90;;;;;;5089714;28;20015;-72
2022/10/17 11:42:23;;;;;;;;;;;16.60;99.90;;;;;;5072849;28;19928;-67
2022/10/17 11:44:51;;;;;;;;;;;16.60;99.90;;;;;;5106860;28;20049;-70
2022/10/17 11:47:19;;;;;;;;;;;16.60;99.90;;;;;;5106870;28;19982;-70
2022/10/17 11:49:48;;;;;;;;;;;16.70;99.90;;;;;;5106655;28;19924;-71
2022/10/17 11:52:19;;;;;;;;;;;16.70;99.90;;;;;;5072344;28;19925;-73
2022/10/17 11:54:49;;;;;;;;;;;16.70;99.90;;;;;;5074295;28;19939;-71
2022/10/17 11:57:33;;;;;;;;;;;16.70;99.90;;;;;;5072696;28;19928;-72
2022/10/17 12:00:17;;;;;;;;;;;16.60;99.90;;;;;;5072458;28;19924;-68
2022/10/17 12:02:56;;;;;;;;;;;16.60;99.90;;;;;;5072704;28;19924;-68
2022/10/17 12:05:41;;;;;;;;;;;16.60;99.90;;;;;;5073628;28;19924;-70
2022/10/17 12:08:09;;;;;;;;;;;16.60;99.90;;;;;;5072118;28;19963;-67
2022/10/17 12:10:51;;;;;;;;;;;16.60;99.90;;;;;;5106359;28;20338;-67
2022/10/17 12:13:29;;;;;;;;;;;16.60;99.90;;;;;;5089032;28;19963;-67
2022/10/17 12:15:55;;;;;;;;;;;16.70;99.90;;;;;;5106280;28;20289;-70
2022/10/17 12:18:23;;;;;;;;;;;16.60;99.90;;;;;;5071924;28;20009;-68
2022/10/17 12:20:59;;;;;;;;;;;16.60;99.90;;;;;;5088947;28;19924;-68
2022/10/17 12:23:29;;;;;;;;;;;16.60;99.90;;;;;;5072446;28;19924;-67
2022/10/17 12:26:00;;;;;;;;;;;16.60;99.90;;;;;;5072370;28;19928;-67
2022/10/17 12:28:27;;;;;;;;;;;16.60;99.90;;;;;;5105782;28;19928;-69
2022/10/17 12:30:52;;;;;;;;;;;16.70;99.90;;;;;;5071950;28;19924;-69
2022/10/17 12:33:21;;;;;;;;;;;16.70;99.90;;;;;;5105399;28;20554;-67
2022/10/17 12:35:50;;;;;;;;;;;16.80;99.90;;;;;;5071631;28;20003;-67
2022/10/17 12:38:16;;;;;;;;;;;16.80;99.90;;;;;;5088505;28;19977;-66
2022/10/17 12:40:42;;;;;;;;;;;16.80;99.90;;;;;;5105856;28;20321;-69
2022/10/17 12:43:27;;;;;;;;;;;16.90;99.90;;;;;;5105343;28;19931;-67
2022/10/17 12:45:54;;;;;;;;;;;16.90;99.90;;;;;;5071186;28;19936;-68
2022/10/17 12:48:31;;;;;;;;;;;16.90;99.90;;;;;;5072487;28;20061;-67
2022/10/17 12:51:03;;;;;;;;;;;16.90;99.90;;;;;;5071783;28;19924;-66
2022/10/17 12:53:49;;;;;;;;;;;16.90;99.90;;;;;;5105409;28;19924;-68
2022/10/17 12:56:16;;;;;;;;;;;16.90;99.90;;;;;;5049988;28;20436;-67
2022/10/17 12:58:43;;;;;;;;;;;16.80;99.90;;;;;;5071723;28;19931;-67
2022/10/17 13:01:13;;;;;;;;;;;16.90;99.90;;;;;;5104815;28;19935;-67
2022/10/17 13:03:43;;;;;;;;;;;16.80;99.90;;;;;;5071732;28;19931;-65
2022/10/17 13:06:19;;;;;;;;;;;16.80;99.90;;;;;;5087706;28;20268;-66
2022/10/17 13:08:47;;;;;;;;;;;16.80;99.90;;;;;;5072601;28;20421;-65
2022/10/17 13:11:14;;;;;;;;;;;16.60;99.90;;;;;;5105023;28;19928;-66
2022/10/17 13:13:39;;;;;;;;;;;16.70;99.90;;;;;;5105007;28;20023;-65
2022/10/17 13:16:05;;;;;;;;;;;16.70;99.90;;;;;;5070991;28;20014;-64
2022/10/17 13:18:30;;;;;;;;;;;16.70;99.90;;;;;;5072304;28;19935;-67
2022/10/17 13:20:56;;;;;;;;;;;16.80;99.90;;;;;;5072529;28;19932;-65
2022/10/17 13:23:23;;;;;;;;;;;16.70;99.90;;;;;;5070398;28;20322;-65
2022/10/17 13:26:03;;;;;;;;;;;16.70;99.90;;;;;;5071074;28;20294;-67
2022/10/17 13:28:28;;;;;;;;;;;16.80;99.90;;;;;;5071795;28;19924;-67
2022/10/17 13:30:54;;;;;;;;;;;16.70;99.90;;;;;;5087853;28;19931;-69
2022/10/17 13:33:38;;;;;;;;;;;16.60;99.90;;;;;;5104543;28;19929;-69
2022/10/17 13:36:12;;;;;;;;;;;16.60;99.90;;;;;;5070996;28;20345;-69
2022/10/17 13:38:38;;;;;;;;;;;16.50;99.90;;;;;;5072107;28;20002;-68
2022/10/17 13:41:09;;;;;;;;;;;16.50;99.90;;;;;;5100341;28;19924;-69
2022/10/17 13:43:34;;;;;;;;;;;16.40;99.90;;;;;;5071076;28;19924;-69
2022/10/17 13:46:04;;;;;;;;;;;16.40;99.90;;;;;;5087574;28;19929;-67
2022/10/17 13:48:31;;;;;;;;;;;16.40;99.90;;;;;;5068683;28;20300;-68
2022/10/17 13:50:58;;;;;;;;;;;16.40;99.90;;;;;;5069806;28;19920;-66
2022/10/17 13:53:28;;;;;;;;;;;16.30;99.90;;;;;;5072424;28;19925;-66
2022/10/17 13:55:55;;;;;;;;;;;16.40;99.90;;;;;;5073889;28;19931;-67
2022/10/17 13:58:21;;;;;;;;;;;16.30;99.90;;;;;;5106584;28;20018;-65
2022/10/17 14:00:49;;;;;;;;;;;16.30;99.90;;;;;;5074218;28;20007;-67
2022/10/17 14:03:15;;;;;;;;;;;16.30;99.90;;;;;;5074070;28;19925;-68
2022/10/17 14:06:03;;;;;;;;;;;16.30;99.90;;;;;;5074133;28;19925;-68
2022/10/17 14:08:30;;;;;;;;;;;16.30;99.90;;;;;;5072782;28;20386;-68
2022/10/17 14:10:56;;;;;;;;;;;16.20;99.90;;;;;;5073285;28;19920;-68
2022/10/17 14:13:23;;;;;;;;;;;16.20;99.90;;;;;;5070828;28;19925;-68
2022/10/17 14:15:49;;;;;;;;;;;16.10;99.90;;;;;;5071354;28;19968;-69
2022/10/17 14:18:25;;;;;;;;;;;16.10;99.90;;;;;;5088527;28;20021;-69
2022/10/17 14:20:51;;;;;;;;;;;16.10;99.90;;;;;;5073334;28;19924;-67
2022/10/17 14:23:36;;;;;;;;;;;16.10;99.90;;;;;;5073058;28;19932;-73
2022/10/17 14:26:07;;;;;;;;;;;16.10;99.90;;;;;;5074160;28;19931;-67
2022/10/17 14:28:33;;;;;;;;;;;16.20;99.90;;;;;;5090098;28;20165;-67
2022/10/17 14:31:10;;;;;;;;;;;16.10;99.90;;;;;;5106048;28;19925;-67
2022/10/17 14:33:36;;;;;;;;;;;16.10;99.90;;;;;;5106283;28;19982;-67